Time;durP1;ratioP1;P1;durP2;ratioP2;P2;SDS_P1;SDS_P2;PMS_P1;PMS_P2;Temp;Humidity;BMP_temperature;BMP_pressure;BME280_temperature;BME280_humidity;BME280_pressure;Samples;Min_cycle;Max_cycle;Signal;HPM_P1;HPM_P2
2023/01/07 00:01:46;;;;;;;;;;;;;;;;;;5083176;28;19930;-49
2023/01/07 00:04:12;;;;;;;;;;;;;;;;;;5082487;28;19939;-47
2023/01/07 00:06:38;;;;;;;;;;;;;;;;;;5083880;28;19971;-47
2023/01/07 00:09:04;;;;;;;;;;;;;;;;;;5078369;28;20269;-47
2023/01/07 00:11:30;;;;;;;;;;;;;;;;;;5083724;28;20293;-47
2023/01/07 00:13:56;;;;;;;;;;;;;;;;;;5079248;28;20394;-48
2023/01/07 00:16:22;;;;;;;;;;;;;;;;;;5083967;28;19932;-49
2023/01/07 00:18:48;;;;;;;;;;;;;;;;;;5082612;28;19931;-46
2023/01/07 00:21:14;;;;;;;;;;;;;;;;;;5081586;28;20011;-48
2023/01/07 00:23:40;;;;;;;;;;;;;;;;;;5083789;28;20428;-50
2023/01/07 00:26:06;;;;;;;;;;;;;;;;;;5079003;28;19964;-47
2023/01/07 00:28:32;;;;;;;;;;;;;;;;;;5083721;28;20003;-47
2023/01/07 00:30:58;;;;;;;;;;;;;;;;;;5082540;28;19951;-47
2023/01/07 00:33:27;;;;;;;;;;;;;;;;;;5083926;28;20360;-50
2023/01/07 00:35:53;;;;;;;;;;;;;;;;;;5081014;28;19935;-48
2023/01/07 00:38:19;;;;;;;;;;;;;;;;;;5082654;28;20828;-46
2023/01/07 00:40:45;;;;;;;;;;;;;;;;;;5084026;28;19970;-47
2023/01/07 00:43:11;;;;;;;;;;;;;;;;;;5082755;28;19924;-50
2023/01/07 00:45:37;;;;;;;;;;;;;;;;;;5083377;28;20379;-50
2023/01/07 00:48:03;;;;;;;;;;;;;;;;;;5081614;28;20460;-48
2023/01/07 00:50:29;;;;;;;;;;;;;;;;;;5081940;28;19981;-53
2023/01/07 00:52:55;;;;;;;;;;;;;;;;;;5065789;28;19931;-49
2023/01/07 00:55:21;;;;;;;;;;;;;;;;;;5078923;28;19977;-48
2023/01/07 00:57:47;;;;;;;;;;;;;;;;;;5083721;28;20035;-50
2023/01/07 01:00:13;;;;;;;;;;;;;;;;;;5078379;28;20344;-47
2023/01/07 01:02:39;;;;;;;;;;;;;;;;;;5084019;28;19924;-47
2023/01/07 01:05:05;;;;;;;;;;;;;;;;;;5083057;28;20016;-47
2023/01/07 01:07:31;;;;;;;;;;;;;;;;;;5081481;28;19924;-50
2023/01/07 01:09:57;;;;;;;;;;;;;;;;;;5088470;28;20003;-50
2023/01/07 01:12:23;;;;;;;;;;;;;;;;;;5081972;28;20342;-47
2023/01/07 01:14:49;;;;;;;;;;;;;;;;;;5086896;28;19928;-47
2023/01/07 01:17:15;;;;;;;;;;;;;;;;;;5085317;28;19928;-48
2023/01/07 01:19:41;;;;;;;;;;;;;;;;;;5086413;28;19924;-50
2023/01/07 01:22:07;;;;;;;;;;;;;;;;;;5085873;28;20563;-48
2023/01/07 01:24:33;;;;;;;;;;;;;;;;;;5084692;28;19981;-47
2023/01/07 01:26:59;;;;;;;;;;;;;;;;;;5069185;28;19986;-49
2023/01/07 01:29:25;;;;;;;;;;;;;;;;;;5084954;28;20018;-48
2023/01/07 01:31:51;;;;;;;;;;;;;;;;;;5088124;28;19928;-50
2023/01/07 01:34:17;;;;;;;;;;;;;;;;;;5083121;28;19971;-48
2023/01/07 01:36:43;;;;;;;;;;;;;;;;;;5086878;28;19971;-47
2023/01/07 01:39:09;;;;;;;;;;;;;;;;;;5082537;28;19977;-47
2023/01/07 01:41:35;;;;;;;;;;;;;;;;;;5086386;28;19928;-49
2023/01/07 01:44:01;;;;;;;;;;;;;;;;;;5084470;28;19927;-49
2023/01/07 01:46:27;;;;;;;;;;;;;;;;;;5084183;28;19970;-50
2023/01/07 01:48:53;;;;;;;;;;;;;;;;;;5065801;28;19920;-47
2023/01/07 01:51:19;;;;;;;;;;;;;;;;;;5083852;28;19932;-47
2023/01/07 01:53:45;;;;;;;;;;;;;;;;;;5085114;28;19976;-50
2023/01/07 01:56:11;;;;;;;;;;;;;;;;;;5084409;28;20018;-49
2023/01/07 01:58:37;;;;;;;;;;;;;;;;;;5065715;28;20526;-47
2023/01/07 02:01:03;;;;;;;;;;;;;;;;;;5087640;28;20259;-47
2023/01/07 02:03:29;;;;;;;;;;;;;;;;;;5159241;22;20043;-56
2023/01/07 02:05:55;;;;;;;;;;;;;;;;;;5088029;28;19928;-55
2023/01/07 02:08:22;;;;;;;;;;;;;;;;;;5088833;28;19931;-53
2023/01/07 02:10:48;;;;;;;;;;;;;;;;;;5088266;28;20016;-50
2023/01/07 02:13:16;;;;;;;;;;;;;;;;;;5088561;28;19982;-53
2023/01/07 02:15:42;;;;;;;;;;;;;;;;;;5070423;28;19928;-52
2023/01/07 02:18:08;;;;;;;;;;;;;;;;;;5087339;28;19935;-53
2023/01/07 02:20:34;;;;;;;;;;;;;;;;;;5086364;28;19927;-53
2023/01/07 02:23:00;;;;;;;;;;;;;;;;;;5088418;28;19920;-53
2023/01/07 02:25:26;;;;;;;;;;;;;;;;;;5089031;28;19989;-51
2023/01/07 02:27:52;;;;;;;;;;;;;;;;;;5088356;28;19920;-55
2023/01/07 02:30:18;;;;;;;;;;;;;;;;;;5088403;28;19932;-51
2023/01/07 02:32:44;;;;;;;;;;;;;;;;;;5087670;28;19931;-52
2023/01/07 02:35:10;;;;;;;;;;;;;;;;;;5088304;28;19920;-51
2023/01/07 02:37:36;;;;;;;;;;;;;;;;;;5086490;28;20012;-54
2023/01/07 02:40:02;;;;;;;;;;;;;;;;;;5080623;28;19978;-55
2023/01/07 02:42:28;;;;;;;;;;;;;;;;;;5087227;28;20007;-51
2023/01/07 02:44:54;;;;;;;;;;;;;;;;;;5081751;28;19924;-50
2023/01/07 02:47:20;;;;;;;;;;;;;;;;;;5081832;28;19924;-52
2023/01/07 02:49:46;;;;;;;;;;;;;;;;;;5080353;28;19924;-53
2023/01/07 02:52:12;;;;;;;;;;;;;;;;;;5085412;28;20020;-53
2023/01/07 02:54:38;;;;;;;;;;;;;;;;;;5077499;28;20070;-55
2023/01/07 02:57:04;;;;;;;;;;;;;;;;;;5081370;28;19924;-50
2023/01/07 02:59:30;;;;;;;;;;;;;;;;;;5087154;28;20151;-51
2023/01/07 03:01:56;;;;;;;;;;;;;;;;;;5080288;28;20270;-53
2023/01/07 03:04:22;;;;;;;;;;;;;;;;;;5086340;28;19939;-54
2023/01/07 03:06:48;;;;;;;;;;;;;;;;;;5084179;28;19928;-51
2023/01/07 03:09:14;;;;;;;;;;;;;;;;;;5087120;28;19924;-53
2023/01/07 03:11:40;;;;;;;;;;;;;;;;;;5086358;28;19956;-52
2023/01/07 03:14:06;;;;;;;;;;;;;;;;;;5083056;28;19928;-53
2023/01/07 03:16:32;;;;;;;;;;;;;;;;;;5086110;28;20281;-50
2023/01/07 03:18:58;;;;;;;;;;;;;;;;;;5080823;28;19931;-51
2023/01/07 03:21:24;;;;;;;;;;;;;;;;;;5084576;28;19924;-47
2023/01/07 03:23:50;;;;;;;;;;;;;;;;;;5080864;28;19924;-54
2023/01/07 03:26:16;;;;;;;;;;;;;;;;;;5085499;28;20397;-55
2023/01/07 03:28:42;;;;;;;;;;;;;;;;;;5079005;28;19954;-49
2023/01/07 03:31:08;;;;;;;;;;;;;;;;;;5080637;28;19920;-52
2023/01/07 03:33:34;;;;;;;;;;;;;;;;;;5077901;28;19978;-50
2023/01/07 03:36:00;;;;;;;;;;;;;;;;;;5074912;28;20408;-55
2023/01/07 03:38:26;;;;;;;;;;;;;;;;;;5083480;28;19963;-53
2023/01/07 03:40:52;;;;;;;;;;;;;;;;;;5079232;28;19994;-51
2023/01/07 03:43:18;;;;;;;;;;;;;;;;;;5086515;28;20575;-51
2023/01/07 03:45:44;;;;;;;;;;;;;;;;;;5085885;28;20007;-53
2023/01/07 03:48:10;;;;;;;;;;;;;;;;;;5086644;28;19924;-54
2023/01/07 03:50:36;;;;;;;;;;;;;;;;;;5082540;28;20424;-55
2023/01/07 03:53:02;;;;;;;;;;;;;;;;;;5080668;28;19924;-52
2023/01/07 03:55:28;;;;;;;;;;;;;;;;;;5079335;28;19924;-49
2023/01/07 03:57:54;;;;;;;;;;;;;;;;;;5085787;28;19978;-51
2023/01/07 04:00:20;;;;;;;;;;;;;;;;;;5078530;28;20015;-53
2023/01/07 04:02:46;;;;;;;;;;;;;;;;;;5085184;28;19969;-51
2023/01/07 04:05:12;;;;;;;;;;;;;;;;;;5086306;28;19924;-49
2023/01/07 04:07:38;;;;;;;;;;;;;;;;;;5082717;28;19931;-53
2023/01/07 04:10:04;;;;;;;;;;;;;;;;;;5080191;28;19976;-51
2023/01/07 04:12:30;;;;;;;;;;;;;;;;;;5078226;28;20026;-52
2023/01/07 04:14:56;;;;;;;;;;;;;;;;;;5083374;28;20001;-48
2023/01/07 04:17:22;;;;;;;;;;;;;;;;;;5062044;28;20082;-52
2023/01/07 04:19:48;;;;;;;;;;;;;;;;;;5079745;28;21297;-51
2023/01/07 04:22:14;;;;;;;;;;;;;;;;;;5063332;28;20057;-52
2023/01/07 04:24:40;;;;;;;;;;;;;;;;;;5081570;28;20003;-54
2023/01/07 04:27:06;;;;;;;;;;;;;;;;;;5079892;28;19932;-50
2023/01/07 04:29:32;;;;;;;;;;;;;;;;;;5084729;28;19924;-54
2023/01/07 04:31:58;;;;;;;;;;;;;;;;;;5079785;28;19943;-51
2023/01/07 04:34:24;;;;;;;;;;;;;;;;;;5079705;28;20387;-55
2023/01/07 04:36:50;;;;;;;;;;;;;;;;;;5078503;28;19998;-53
2023/01/07 04:39:16;;;;;;;;;;;;;;;;;;5085033;28;19974;-55
2023/01/07 04:41:42;;;;;;;;;;;;;;;;;;5079060;28;19943;-49
2023/01/07 04:44:08;;;;;;;;;;;;;;;;;;5085432;28;19931;-54
2023/01/07 04:46:34;;;;;;;;;;;;;;;;;;5082632;28;19928;-52
2023/01/07 04:49:00;;;;;;;;;;;;;;;;;;5079133;28;20321;-53
2023/01/07 04:51:26;;;;;;;;;;;;;;;;;;5084476;28;19928;-52
2023/01/07 04:53:52;;;;;;;;;;;;;;;;;;5081633;28;20013;-50
2023/01/07 04:56:18;;;;;;;;;;;;;;;;;;5085476;28;19928;-48
2023/01/07 04:58:44;;;;;;;;;;;;;;;;;;5079220;28;19947;-50
2023/01/07 05:01:10;;;;;;;;;;;;;;;;;;5064059;28;20344;-54
2023/01/07 05:03:36;;;;;;;;;;;;;;;;;;5079774;28;20366;-52
2023/01/07 05:06:02;;;;;;;;;;;;;;;;;;5074290;28;19924;-52
2023/01/07 05:08:28;;;;;;;;;;;;;;;;;;5083046;28;19985;-56
2023/01/07 05:10:54;;;;;;;;;;;;;;;;;;5082602;28;19920;-55
2023/01/07 05:13:21;;;;;;;;;;;;;;;;;;5081371;28;19924;-54
2023/01/07 05:15:47;;;;;;;;;;;;;;;;;;5084122;28;19920;-52
2023/01/07 05:18:13;;;;;;;;;;;;;;;;;;5080665;28;19969;-52
2023/01/07 05:20:39;;;;;;;;;;;;;;;;;;5078695;28;20290;-53
2023/01/07 05:23:05;;;;;;;;;;;;;;;;;;5080627;28;19975;-55
2023/01/07 05:25:31;;;;;;;;;;;;;;;;;;5074512;28;19932;-53
2023/01/07 05:27:57;;;;;;;;;;;;;;;;;;5073598;28;19924;-50
2023/01/07 05:30:23;;;;;;;;;;;;;;;;;;5072079;28;19925;-50
2023/01/07 05:32:49;;;;;;;;;;;;;;;;;;5075664;28;20022;-56
2023/01/07 05:35:15;;;;;;;;;;;;;;;;;;5079504;28;19930;-54
2023/01/07 05:37:41;;;;;;;;;;;;;;;;;;5079856;28;19932;-54
2023/01/07 05:40:07;;;;;;;;;;;;;;;;;;5079439;28;19932;-51
2023/01/07 05:42:33;;;;;;;;;;;;;;;;;;5075240;28;19924;-52
2023/01/07 05:44:59;;;;;;;;;;;;;;;;;;5084024;28;19928;-57
2023/01/07 05:47:25;;;;;;;;;;;;;;;;;;5075690;28;20292;-55
2023/01/07 05:49:51;;;;;;;;;;;;;;;;;;5071181;28;19936;-52
2023/01/07 05:52:17;;;;;;;;;;;;;;;;;;5083474;28;19924;-52
2023/01/07 05:54:43;;;;;;;;;;;;;;;;;;5079591;28;20343;-52
2023/01/07 05:57:10;;;;;;;;;;;;;;;;;;5077152;28;19924;-54
2023/01/07 05:59:36;;;;;;;;;;;;;;;;;;5081935;28;19924;-51
2023/01/07 06:02:02;;;;;;;;;;;;;;;;;;5074668;28;19943;-52
2023/01/07 06:04:28;;;;;;;;;;;;;;;;;;5078392;28;20348;-51
2023/01/07 06:06:54;;;;;;;;;;;;;;;;;;5080847;28;19924;-54
2023/01/07 06:09:21;;;;;;;;;;;;;;;;;;5081746;28;19955;-55
2023/01/07 06:11:47;;;;;;;;;;;;;;;;;;5081445;28;19924;-52
2023/01/07 06:14:13;;;;;;;;;;;;;;;;;;5063957;28;19960;-53
2023/01/07 06:16:39;;;;;;;;;;;;;;;;;;5087002;28;20080;-54
2023/01/07 06:19:05;;;;;;;;;;;;;;;;;;5087026;28;20013;-52
2023/01/07 06:21:31;;;;;;;;;;;;;;;;;;5058966;28;20453;-52
2023/01/07 06:23:57;;;;;;;;;;;;;;;;;;5080656;28;19927;-56
2023/01/07 06:26:23;;;;;;;;;;;;;;;;;;5080180;28;19932;-52
2023/01/07 06:28:49;;;;;;;;;;;;;;;;;;5086290;28;19928;-54
2023/01/07 06:31:15;;;;;;;;;;;;;;;;;;5085899;28;20409;-55
2023/01/07 06:33:41;;;;;;;;;;;;;;;;;;5087687;28;20145;-54
2023/01/07 06:36:07;;;;;;;;;;;;;;;;;;5085167;28;20363;-52
2023/01/07 06:38:33;;;;;;;;;;;;;;;;;;5086860;28;19924;-53
2023/01/07 06:41:00;;;;;;;;;;;;;;;;;;5079994;28;19950;-57
2023/01/07 06:43:26;;;;;;;;;;;;;;;;;;5087831;28;19946;-51
2023/01/07 06:45:52;;;;;;;;;;;;;;;;;;5081039;28;20424;-53
2023/01/07 06:48:18;;;;;;;;;;;;;;;;;;5082508;28;19964;-53
2023/01/07 06:50:45;;;;;;;;;;;;;;;;;;5086012;28;19960;-54
2023/01/07 06:53:11;;;;;;;;;;;;;;;;;;5087141;28;19932;-56
2023/01/07 06:55:37;;;;;;;;;;;;;;;;;;5087281;28;19939;-50
2023/01/07 06:58:03;;;;;;;;;;;;;;;;;;5079699;28;19951;-56
2023/01/07 07:00:29;;;;;;;;;;;;;;;;;;5087643;28;19924;-57
2023/01/07 07:02:55;;;;;;;;;;;;;;;;;;5084566;28;19932;-52
2023/01/07 07:05:21;;;;;;;;;;;;;;;;;;5078737;28;19950;-56
2023/01/07 07:07:47;;;;;;;;;;;;;;;;;;5081796;28;19954;-53
2023/01/07 07:10:13;;;;;;;;;;;;;;;;;;5064966;28;19931;-53
2023/01/07 07:12:39;;;;;;;;;;;;;;;;;;5073850;28;20271;-54
2023/01/07 07:15:05;;;;;;;;;;;;;;;;;;5085142;28;19928;-56
2023/01/07 07:17:31;;;;;;;;;;;;;;;;;;5073288;28;19932;-54
2023/01/07 07:19:57;;;;;;;;;;;;;;;;;;5082957;28;20541;-52
2023/01/07 07:22:23;;;;;;;;;;;;;;;;;;5067692;28;19981;-51
2023/01/07 07:24:49;;;;;;;;;;;;;;;;;;5082872;28;19928;-53
2023/01/07 07:27:15;;;;;;;;;;;;;;;;;;5080812;28;20481;-53
2023/01/07 07:29:41;;;;;;;;;;;;;;;;;;5077315;28;20348;-55
2023/01/07 07:32:08;;;;;;;;;;;;;;;;;;5070188;28;19924;-52
2023/01/07 07:34:34;;;;;;;;;;;;;;;;;;5072516;28;20325;-52
2023/01/07 07:37:00;;;;;;;;;;;;;;;;;;5083305;28;19930;-55
2023/01/07 07:39:26;;;;;;;;;;;;;;;;;;5082278;28;20015;-56
2023/01/07 07:41:52;;;;;;;;;;;;;;;;;;5076365;28;19977;-54
2023/01/07 07:44:18;;;;;;;;;;;;;;;;;;5064681;28;19920;-53
2023/01/07 07:46:44;;;;;;;;;;;;;;;;;;5073808;28;19935;-56
2023/01/07 07:49:10;;;;;;;;;;;;;;;;;;5084299;28;19920;-51
2023/01/07 07:51:36;;;;;;;;;;;;;;;;;;5080072;28;19936;-53
2023/01/07 07:54:02;;;;;;;;;;;;;;;;;;5081026;28;19949;-54
2023/01/07 07:56:28;;;;;;;;;;;;;;;;;;5082664;28;19920;-53
2023/01/07 07:58:54;;;;;;;;;;;;;;;;;;5083814;28;20278;-55
2023/01/07 08:01:20;;;;;;;;;;;;;;;;;;5082388;28;19931;-53
2023/01/07 08:03:46;;;;;;;;;;;;;;;;;;5091448;28;19925;-56
2023/01/07 08:06:12;;;;;;;;;;;;;;;;;;5103584;28;19930;-54
2023/01/07 08:08:38;;;;;;;;;;;;;;;;;;5099224;28;19949;-51
2023/01/07 08:11:04;;;;;;;;;;;;;;;;;;5093643;28;19951;-54
2023/01/07 08:13:31;;;;;;;;;;;;;;;;;;5097466;28;19931;-55
2023/01/07 08:15:57;;;;;;;;;;;;;;;;;;5095571;28;19980;-54
2023/01/07 08:18:23;;;;;;;;;;;;;;;;;;5101757;28;19924;-53
2023/01/07 08:20:49;;;;;;;;;;;;;;;;;;5102368;28;19955;-55
2023/01/07 08:23:15;;;;;;;;;;;;;;;;;;5101117;28;19954;-51
2023/01/07 08:25:41;;;;;;;;;;;;;;;;;;5092594;28;20308;-53
2023/01/07 08:28:07;;;;;;;;;;;;;;;;;;5095740;28;19924;-53
2023/01/07 08:30:34;;;;;;;;;;;;;;;;;;5101788;28;19924;-52
2023/01/07 08:33:00;;;;;;;;;;;;;;;;;;5100946;28;19932;-56
2023/01/07 08:35:26;;;;;;;;;;;;;;;;;;5103050;28;19989;-54
2023/01/07 08:37:53;;;;;;;;;;;;;;;;;;5093295;28;19927;-55
2023/01/07 08:40:19;;;;;;;;;;;;;;;;;;5100798;28;20525;-54
2023/01/07 08:42:45;;;;;;;;;;;;;;;;;;5102560;28;19924;-54
2023/01/07 08:45:11;;;;;;;;;;;;;;;;;;5104687;28;19923;-55
2023/01/07 08:47:37;;;;;;;;;;;;;;;;;;5100382;28;20046;-52
2023/01/07 08:50:03;;;;;;;;;;;;;;;;;;5102640;28;20382;-55
2023/01/07 08:52:29;;;;;;;;;;;;;;;;;;5100709;28;20404;-56
2023/01/07 08:54:55;;;;;;;;;;;;;;;;;;5094431;28;19981;-56
2023/01/07 08:57:21;;;;;;;;;;;;;;;;;;5100763;28;19931;-55
2023/01/07 08:59:47;;;;;;;;;;;;;;;;;;5099798;28;19931;-55
2023/01/07 09:02:13;;;;;;;;;;;;;;;;;;5102507;28;19923;-55
2023/01/07 09:04:39;;;;;;;;;;;;;;;;;;5099016;28;19930;-54
2023/01/07 09:07:05;;;;;;;;;;;;;;;;;;5100038;28;19931;-57
2023/01/07 09:09:31;;;;;;;;;;;;;;;;;;5102982;28;20284;-52
2023/01/07 09:11:57;;;;;;;;;;;;;;;;;;5099392;28;19968;-56
2023/01/07 09:14:23;;;;;;;;;;;;;;;;;;5099112;28;20020;-54
2023/01/07 09:16:49;;;;;;;;;;;;;;;;;;5100859;28;20400;-56
2023/01/07 09:19:15;;;;;;;;;;;;;;;;;;5099266;28;19966;-56
2023/01/07 09:21:41;;;;;;;;;;;;;;;;;;5097983;28;19965;-52
2023/01/07 09:24:07;;;;;;;;;;;;;;;;;;5100647;28;19980;-54
2023/01/07 09:26:33;;;;;;;;;;;;;;;;;;5100142;28;19927;-54
2023/01/07 09:28:59;;;;;;;;;;;;;;;;;;5102696;28;19930;-57
2023/01/07 09:31:25;;;;;;;;;;;;;;;;;;5104677;28;19931;-56
2023/01/07 09:33:51;;;;;;;;;;;;;;;;;;5103821;28;19927;-56
2023/01/07 09:36:17;;;;;;;;;;;;;;;;;;5109069;28;19930;-54
2023/01/07 09:38:43;;;;;;;;;;;;;;;;;;5109652;28;19924;-55
2023/01/07 09:41:09;;;;;;;;;;;;;;;;;;5109317;28;19923;-56
2023/01/07 09:43:35;;;;;;;;;;;;;;;;;;5107358;28;19931;-55
2023/01/07 09:46:01;;;;;;;;;;;;;;;;;;5108664;28;20631;-53
2023/01/07 09:48:27;;;;;;;;;;;;;;;;;;5101602;28;19928;-55
2023/01/07 09:50:54;;;;;;;;;;;;;;;;;;5094654;28;19927;-54
2023/01/07 09:53:20;;;;;;;;;;;;;;;;;;5101978;28;19934;-56
2023/01/07 09:55:46;;;;;;;;;;;;;;;;;;5106879;28;19932;-55
2023/01/07 09:58:11;;;;;;;;;;;;;;;;;;5107046;28;19934;-53
2023/01/07 10:00:37;;;;;;;;;;;;;;;;;;5106742;28;20300;-56
2023/01/07 10:03:03;;;;;;;;;;;;;;;;;;5105835;28;19931;-55
2023/01/07 10:05:29;;;;;;;;;;;;;;;;;;5105502;28;19924;-56
2023/01/07 10:07:55;;;;;;;;;;;;;;;;;;5106496;28;19931;-56
2023/01/07 10:10:23;;;;;;;;;;;;;;;;;;5106781;28;20544;-50
2023/01/07 10:12:49;;;;;;;;;;;;;;;;;;5106220;28;20471;-56
2023/01/07 10:15:16;;;;;;;;;;;;;;;;;;5105443;28;22310;-56
2023/01/07 10:17:42;;;;;;;;;;;;;;;;;;5106534;28;20602;-52
2023/01/07 10:20:08;;;;;;;;;;;;;;;;;;5103993;28;19928;-56
2023/01/07 10:22:34;;;;;;;;;;;;;;;;;;5100308;28;19947;-56
2023/01/07 10:25:00;;;;;;;;;;;;;;;;;;5082588;28;20691;-54
2023/01/07 10:27:26;;;;;;;;;;;;;;;;;;5103626;28;19939;-55
2023/01/07 10:29:53;;;;;;;;;;;;;;;;;;5102452;28;19924;-54
2023/01/07 10:32:19;;;;;;;;;;;;;;;;;;5102565;28;19995;-53
2023/01/07 10:34:46;;;;;;;;;;;;;;;;;;5103142;28;20788;-54
2023/01/07 10:37:12;;;;;;;;;;;;;;;;;;5104441;28;19932;-55
2023/01/07 10:39:38;;;;;;;;;;;;;;;;;;5101607;28;19927;-56
2023/01/07 10:42:04;;;;;;;;;;;;;;;;;;5104064;28;19980;-54
2023/01/07 10:44:30;;;;;;;;;;;;;;;;;;5099756;28;19927;-55
2023/01/07 10:46:56;;;;;;;;;;;;;;;;;;5083108;28;20297;-54
2023/01/07 10:49:22;;;;;;;;;;;;;;;;;;5081772;28;19935;-55
2023/01/07 10:51:48;;;;;;;;;;;;;;;;;;5102695;28;19935;-56
2023/01/07 10:54:14;;;;;;;;;;;;;;;;;;5103582;28;19935;-56
2023/01/07 10:56:40;;;;;;;;;;;;;;;;;;5100235;28;19936;-55
2023/01/07 10:59:06;;;;;;;;;;;;;;;;;;5100709;28;20498;-54
2023/01/07 11:01:32;;;;;;;;;;;;;;;;;;5084135;28;19946;-57
2023/01/07 11:03:58;;;;;;;;;;;;;;;;;;5096523;28;20880;-50
2023/01/07 11:06:24;;;;;;;;;;;;;;;;;;5092511;28;19930;-55
2023/01/07 11:08:52;;;;;;;;;;;;;;;;;;5097616;28;19928;-54
2023/01/07 11:11:18;;;;;;;;;;;;;;;;;;5098455;28;19935;-54
2023/01/07 11:13:44;;;;;;;;;;;;;;;;;;5091975;28;19928;-55
2023/01/07 11:16:10;;;;;;;;;;;;;;;;;;5085671;28;19939;-55
2023/01/07 11:18:36;;;;;;;;;;;;;;;;;;5080473;28;19924;-56
2023/01/07 11:21:02;;;;;;;;;;;;;;;;;;5087393;28;19939;-52
2023/01/07 11:23:28;;;;;;;;;;;;;;;;;;5089765;28;20376;-53
2023/01/07 11:25:54;;;;;;;;;;;;;;;;;;5088682;28;19930;-56
2023/01/07 11:28:20;;;;;;;;;;;;;;;;;;5099006;28;19939;-55
2023/01/07 11:30:46;;;;;;;;;;;;;;;;;;5099546;28;19923;-52
2023/01/07 11:33:12;;;;;;;;;;;;;;;;;;5081406;28;19942;-52
2023/01/07 11:35:43;;;;;;;;;;;;;;;;;;5086482;28;19950;-55
2023/01/07 11:38:09;;;;;;;;;;;;;;;;;;5086684;28;19985;-55
2023/01/07 11:40:35;;;;;;;;;;;;;;;;;;5086918;28;19925;-53
2023/01/07 11:43:01;;;;;;;;;;;;;;;;;;5087026;28;19981;-55
2023/01/07 11:45:27;;;;;;;;;;;;;;;;;;5087526;28;20286;-52
2023/01/07 11:47:53;;;;;;;;;;;;;;;;;;5086722;28;19924;-52
2023/01/07 11:50:19;;;;;;;;;;;;;;;;;;5083374;28;19978;-56
2023/01/07 11:52:45;;;;;;;;;;;;;;;;;;5084157;28;19971;-50
2023/01/07 11:55:11;;;;;;;;;;;;;;;;;;5084425;28;20403;-54
2023/01/07 11:57:37;;;;;;;;;;;;;;;;;;5080788;28;19924;-50
2023/01/07 12:00:03;;;;;;;;;;;;;;;;;;5085813;28;19923;-55
2023/01/07 12:02:29;;;;;;;;;;;;;;;;;;5087480;28;19946;-56
2023/01/07 12:04:55;;;;;;;;;;;;;;;;;;5104069;28;19930;-53
2023/01/07 12:07:23;;;;;;;;;;;;;;;;;;5103888;28;19924;-49
2023/01/07 12:09:49;;;;;;;;;;;;;;;;;;5104601;28;20652;-56
2023/01/07 12:14:59;;;;;;;;;;;;;;;;;;5103905;28;19927;-55
2023/01/07 12:17:25;;;;;;;;;;;;;;;;;;5103172;28;19928;-54
2023/01/07 12:19:51;;;;;;;;;;;;;;;;;;5102505;28;20393;-55
2023/01/07 12:22:17;;;;;;;;;;;;;;;;;;5104472;28;19928;-54
2023/01/07 12:24:43;;;;;;;;;;;;;;;;;;5104019;28;19938;-54
2023/01/07 12:27:10;;;;;;;;;;;;;;;;;;5104332;28;20307;-56
2023/01/07 12:29:37;;;;;;;;;;;;;;;;;;5104295;28;20369;-54
2023/01/07 12:32:03;;;;;;;;;;;;;;;;;;5103131;28;19947;-54
2023/01/07 12:34:29;;;;;;;;;;;;;;;;;;5096316;28;19996;-56
2023/01/07 12:36:59;;;;;;;;;;;;;;;;;;5104315;28;19970;-52
2023/01/07 12:39:25;;;;;;;;;;;;;;;;;;5091348;28;19979;-55
2023/01/07 12:41:51;;;;;;;;;;;;;;;;;;5101233;28;20780;-52
2023/01/07 12:44:17;;;;;;;;;;;;;;;;;;5103672;28;19930;-52
2023/01/07 12:46:43;;;;;;;;;;;;;;;;;;5100439;28;20274;-48
2023/01/07 12:49:09;;;;;;;;;;;;;;;;;;5100950;28;20665;-52
2023/01/07 12:51:35;;;;;;;;;;;;;;;;;;5097746;28;19931;-56
2023/01/07 12:54:01;;;;;;;;;;;;;;;;;;5099047;28;19923;-52
2023/01/07 12:56:27;;;;;;;;;;;;;;;;;;5104332;28;19976;-54
2023/01/07 12:58:53;;;;;;;;;;;;;;;;;;5096836;28;19924;-49
2023/01/07 13:01:20;;;;;;;;;;;;;;;;;;5106098;28;19928;-53
2023/01/07 13:03:47;;;;;;;;;;;;;;;;;;5109702;28;20432;-56
2023/01/07 13:06:12;;;;;;;;;;;;;;;;;;5110293;28;20440;-53
2023/01/07 13:08:38;;;;;;;;;;;;;;;;;;5109908;28;19926;-56
2023/01/07 13:11:04;;;;;;;;;;;;;;;;;;5110709;28;19924;-50
2023/01/07 13:13:30;;;;;;;;;;;;;;;;;;5109333;28;19986;-53
2023/01/07 13:15:56;;;;;;;;;;;;;;;;;;5111269;28;20381;-56
2023/01/07 13:18:22;;;;;;;;;;;;;;;;;;5110543;28;20489;-52
2023/01/07 13:20:49;;;;;;;;;;;;;;;;;;5109586;28;20511;-52
2023/01/07 13:23:15;;;;;;;;;;;;;;;;;;5110575;28;19923;-52
2023/01/07 13:25:41;;;;;;;;;;;;;;;;;;5109466;28;20442;-52
2023/01/07 13:28:07;;;;;;;;;;;;;;;;;;5110292;28;19977;-52
2023/01/07 13:30:33;;;;;;;;;;;;;;;;;;5109343;28;19927;-51
2023/01/07 13:32:59;;;;;;;;;;;;;;;;;;5110400;28;19924;-57
2023/01/07 13:35:25;;;;;;;;;;;;;;;;;;5110102;28;19924;-50
2023/01/07 13:37:51;;;;;;;;;;;;;;;;;;5091669;28;19977;-51
2023/01/07 13:40:18;;;;;;;;;;;;;;;;;;5110338;28;20326;-55
2023/01/07 13:42:44;;;;;;;;;;;;;;;;;;5108681;28;19988;-54
2023/01/07 13:45:11;;;;;;;;;;;;;;;;;;5110564;28;20007;-51
2023/01/07 13:47:37;;;;;;;;;;;;;;;;;;5109035;28;19923;-50
2023/01/07 13:50:03;;;;;;;;;;;;;;;;;;5108515;28;19930;-53
2023/01/07 13:52:29;;;;;;;;;;;;;;;;;;5109754;28;20679;-57
2023/01/07 13:54:55;;;;;;;;;;;;;;;;;;5109961;28;19923;-52
2023/01/07 13:57:21;;;;;;;;;;;;;;;;;;5107021;28;19943;-52
2023/01/07 13:59:47;;;;;;;;;;;;;;;;;;5106162;28;19924;-49
2023/01/07 14:02:13;;;;;;;;;;;;;;;;;;5105352;28;19931;-53
2023/01/07 14:04:43;;;;;;;;;;;;;;;;;;5106845;28;19931;-55
2023/01/07 14:07:09;;;;;;;;;;;;;;;;;;5108626;28;19958;-54
2023/01/07 14:09:35;;;;;;;;;;;;;;;;;;5105517;28;19919;-53
2023/01/07 14:12:01;;;;;;;;;;;;;;;;;;5100971;28;19928;-52
2023/01/07 14:14:28;;;;;;;;;;;;;;;;;;5087596;28;20414;-51
2023/01/07 14:16:54;;;;;;;;;;;;;;;;;;5101694;28;19946;-52
2023/01/07 14:19:20;;;;;;;;;;;;;;;;;;5106110;28;20305;-54
2023/01/07 14:21:46;;;;;;;;;;;;;;;;;;5106517;28;19924;-53
2023/01/07 14:24:12;;;;;;;;;;;;;;;;;;5105427;28;19927;-53
2023/01/07 14:26:38;;;;;;;;;;;;;;;;;;5105986;28;19923;-54
2023/01/07 14:29:04;;;;;;;;;;;;;;;;;;5106864;28;19974;-53
2023/01/07 14:31:30;;;;;;;;;;;;;;;;;;5099857;28;19959;-53
2023/01/07 14:33:57;;;;;;;;;;;;;;;;;;5095463;28;20014;-51
2023/01/07 14:36:23;;;;;;;;;;;;;;;;;;5101410;28;19949;-54
2023/01/07 14:38:49;;;;;;;;;;;;;;;;;;5094108;28;20248;-54
2023/01/07 14:41:15;;;;;;;;;;;;;;;;;;5100961;28;19932;-53
2023/01/07 14:43:42;;;;;;;;;;;;;;;;;;5099691;28;19924;-50
2023/01/07 14:46:08;;;;;;;;;;;;;;;;;;5096189;28;20388;-53
2023/01/07 14:48:34;;;;;;;;;;;;;;;;;;5095646;28;20018;-54
2023/01/07 14:51:00;;;;;;;;;;;;;;;;;;5099182;28;20023;-54
2023/01/07 14:53:26;;;;;;;;;;;;;;;;;;5100168;28;20080;-52
2023/01/07 14:55:52;;;;;;;;;;;;;;;;;;5101500;28;19967;-51
2023/01/07 14:58:18;;;;;;;;;;;;;;;;;;5096251;28;20070;-55
2023/01/07 15:00:44;;;;;;;;;;;;;;;;;;5092677;28;20401;-55
2023/01/07 15:03:10;;;;;;;;;;;;;;;;;;5101913;28;20601;-49
2023/01/07 15:05:36;;;;;;;;;;;;;;;;;;5105676;28;20369;-55
2023/01/07 15:16:16;;;;;;;;;;;;;;;;;;5103131;28;19924;-54
2023/01/07 15:18:42;;;;;;;;;;;;;;;;;;5100146;28;19924;-53
2023/01/07 15:21:08;;;;;;;;;;;;;;;;;;5106981;28;20264;-51
2023/01/07 15:23:34;;;;;;;;;;;;;;;;;;5098794;28;19920;-50
2023/01/07 15:26:00;;;;;;;;;;;;;;;;;;5091413;28;19959;-50
2023/01/07 15:28:26;;;;;;;;;;;;;;;;;;5099318;28;20022;-50
2023/01/07 15:30:52;;;;;;;;;;;;;;;;;;5106465;28;19920;-53
2023/01/07 15:33:18;;;;;;;;;;;;;;;;;;5105529;28;19970;-48
2023/01/07 15:35:44;;;;;;;;;;;;;;;;;;5105420;28;19963;-53
2023/01/07 15:38:10;;;;;;;;;;;;;;;;;;5105911;28;20383;-50
2023/01/07 15:40:36;;;;;;;;;;;;;;;;;;5103060;28;19932;-52
2023/01/07 15:43:04;;;;;;;;;;;;;;;;;;5105079;28;19924;-51
2023/01/07 15:45:30;;;;;;;;;;;;;;;;;;5104609;28;19924;-54
2023/01/07 15:47:56;;;;;;;;;;;;;;;;;;5094944;28;19924;-51
2023/01/07 15:50:22;;;;;;;;;;;;;;;;;;5100472;28;19927;-51
2023/01/07 15:52:49;;;;;;;;;;;;;;;;;;5103088;28;19934;-49
2023/01/07 15:55:15;;;;;;;;;;;;;;;;;;5103082;28;20242;-52
2023/01/07 15:57:42;;;;;;;;;;;;;;;;;;5094522;28;19935;-52
2023/01/07 16:00:08;;;;;;;;;;;;;;;;;;5103724;28;19935;-53
2023/01/07 16:02:34;;;;;;;;;;;;;;;;;;5103263;28;19932;-54
2023/01/07 16:05:00;;;;;;;;;;;;;;;;;;5102669;28;19993;-54
2023/01/07 16:07:27;;;;;;;;;;;;;;;;;;5104085;28;20297;-53
2023/01/07 16:09:53;;;;;;;;;;;;;;;;;;5103167;28;19928;-55
2023/01/07 16:12:19;;;;;;;;;;;;;;;;;;5097982;28;19928;-53
2023/01/07 16:14:45;;;;;;;;;;;;;;;;;;5078606;28;19935;-53
2023/01/07 16:17:11;;;;;;;;;;;;;;;;;;5100047;28;19927;-54
2023/01/07 16:19:37;;;;;;;;;;;;;;;;;;5097611;28;20015;-53
2023/01/07 16:22:03;;;;;;;;;;;;;;;;;;5099177;28;20001;-53
2023/01/07 16:24:29;;;;;;;;;;;;;;;;;;5100509;28;19923;-54
2023/01/07 16:26:55;;;;;;;;;;;;;;;;;;5099780;28;19931;-56
2023/01/07 16:29:21;;;;;;;;;;;;;;;;;;5101383;28;19924;-52
2023/01/07 16:31:47;;;;;;;;;;;;;;;;;;5101439;28;20447;-56
2023/01/07 16:34:13;;;;;;;;;;;;;;;;;;5100049;28;20016;-55
2023/01/07 16:36:39;;;;;;;;;;;;;;;;;;5098746;28;19920;-55
2023/01/07 16:39:05;;;;;;;;;;;;;;;;;;5101913;28;20010;-55
2023/01/07 16:41:31;;;;;;;;;;;;;;;;;;5100980;28;19930;-55
2023/01/07 16:43:57;;;;;;;;;;;;;;;;;;5101139;28;19931;-55
2023/01/07 16:46:23;;;;;;;;;;;;;;;;;;5098432;28;19959;-55
2023/01/07 16:48:50;;;;;;;;;;;;;;;;;;5098753;28;20634;-54